This is the latest recevied weather packets stored in our database for station/object DJ6OI-23. If no packets are shown the sender has not sent any weather packets the latest 10 day(s).
| Time | Temp. | Humidity | Pressure | Rain* | Wind** | Luminosity | Snow |
|---|---|---|---|---|---|---|---|
| 1777287453 | 21.11° C | 31% | 1002.8 hPa | 0 mm | - | - | - |
| 1777286518 | 20.56° C | 32% | 1002.9 hPa | 0 mm | - | - | - |
| 1777285583 | 21.11° C | 32% | 1003 hPa | 0 mm | - | - | - |
| 1777284648 | 20.56° C | 33% | 1003.2 hPa | 0 mm | - | - | - |
| 1777283713 | 20.56° C | 34% | 1003.2 hPa | 0 mm | - | - | - |
| 1777282778 | 20° C | 35% | 1003.3 hPa | 0 mm | - | - | - |
| 1777281843 | 19.44° C | 37% | 1003.4 hPa | 0 mm | - | - | - |
| 1777280909 | 18.89° C | 41% | 1003.6 hPa | 0 mm | - | - | - |
| 1777279974 | 17.22° C | 44% | 1003.6 hPa | 0 mm | - | - | - |
| 1777279039 | 15.56° C | 49% | 1003.7 hPa | 0 mm | - | - | - |
| 1777278104 | 13.33° C | 54% | 1003.9 hPa | 0 mm | - | - | - |
| 1777277169 | 12.22° C | 57% | 1004 hPa | 0 mm | - | - | - |
| 1777276234 | 11.11° C | 61% | 1004 hPa | 0 mm | - | - | - |
| 1777275299 | 10° C | 63% | 1003.9 hPa | 0 mm | - | - | - |
| 1777274364 | 9.44° C | 68% | 1004.1 hPa | 0 mm | - | - | - |
| 1777273429 | 7.78° C | 71% | 1004.2 hPa | 0 mm | - | - | - |
| 1777272494 | 7.22° C | 73% | 1004.3 hPa | 0 mm | - | - | - |
| 1777271559 | 6.11° C | 76% | 1004.2 hPa | 0 mm | - | - | - |
| 1777270624 | 5° C | 79% | 1004.2 hPa | 0 mm | - | - | - |
| 1777269690 | 4.44° C | 81% | 1004.3 hPa | 0 mm | - | - | - |
| 1777268755 | 3.33° C | 82% | 1004.3 hPa | 0 mm | - | - | - |
| 1777267820 | 2.78° C | 83% | 1004.4 hPa | 0 mm | - | - | - |
| 1777266885 | 2.22° C | 84% | 1004.2 hPa | 0 mm | - | - | - |
| 1777265950 | 1.67° C | 85% | 1004.1 hPa | 0 mm | - | - | - |
| 1777265015 | 1.11° C | 85% | 1004 hPa | 0 mm | - | - | - |
* Rain latest hour (hover to see other rain measurements)
** Current wind speed in m/s (hover to see current wind gust speed)